createdAt,value
2022-11-21T00:00:18.820Z,42.56
2022-11-21T00:01:00.803Z,46.11
2022-11-21T00:01:41.891Z,44.75
2022-11-21T00:02:21.764Z,42.70
2022-11-21T00:03:07.832Z,47.70
2022-11-21T00:03:47.792Z,59.91
2022-11-21T00:04:28.155Z,63.49
2022-11-21T00:05:07.784Z,56.35
2022-11-21T00:05:54.871Z,57.24
2022-11-21T00:06:34.831Z,53.76
2022-11-21T00:07:14.829Z,49.26
2022-11-21T00:07:55.760Z,49.34
2022-11-21T00:08:36.856Z,49.10
2022-11-21T00:09:17.749Z,47.20
2022-11-21T00:09:57.812Z,45.51
2022-11-21T00:10:37.756Z,45.94
2022-11-21T00:11:17.804Z,45.56
2022-11-21T00:11:58.820Z,44.88
2022-11-21T00:12:38.825Z,43.92
2022-11-21T00:13:23.747Z,43.06
2022-11-21T00:14:04.829Z,42.99
2022-11-21T00:14:44.739Z,44.21
2022-11-21T00:15:24.796Z,43.53
2022-11-21T00:16:12.758Z,41.91
2022-11-21T00:16:57.125Z,40.50
2022-11-21T00:17:37.776Z,42.01
2022-11-21T00:18:17.851Z,42.56
2022-11-21T00:18:58.772Z,42.65
2022-11-21T00:19:40.444Z,44.05
2022-11-21T00:20:20.753Z,44.38
2022-11-21T00:21:00.832Z,43.08
2022-11-21T00:21:40.747Z,42.38
2022-11-21T00:22:20.775Z,42.97
2022-11-21T00:23:00.787Z,44.06
2022-11-21T00:23:41.844Z,45.09
2022-11-21T00:24:21.759Z,43.47
2022-11-21T00:25:01.783Z,43.74
2022-11-21T00:25:42.782Z,44.51
2022-11-21T00:26:23.795Z,44.19
2022-11-21T00:27:03.767Z,42.21
2022-11-21T00:27:43.800Z,41.71
2022-11-21T00:28:24.761Z,40.69
2022-11-21T00:29:04.808Z,41.78
2022-11-21T00:29:44.745Z,39.88
2022-11-21T00:30:24.767Z,39.56
2022-11-21T00:31:04.793Z,41.66
2022-11-21T00:31:44.850Z,41.61
2022-11-21T00:32:24.743Z,39.59
2022-11-21T00:33:05.787Z,39.14
2022-11-21T00:33:45.811Z,41.51
2022-11-21T00:34:26.062Z,40.69
2022-11-21T00:35:05.741Z,39.41
2022-11-21T00:35:45.815Z,40.26
2022-11-21T00:36:25.763Z,41.06
2022-11-21T00:37:19.764Z,41.72
2022-11-21T00:38:13.764Z,39.66
2022-11-21T00:39:00.783Z,37.97
2022-11-21T00:39:34.797Z,36.30
2022-11-21T00:40:22.723Z,36.95
2022-11-21T00:40:56.816Z,37.49
2022-11-21T00:41:43.734Z,38.90
2022-11-21T00:42:17.799Z,38.76
2022-11-21T00:43:04.779Z,37.56
2022-11-21T00:43:38.796Z,38.78
2022-11-21T00:44:26.071Z,39.58
2022-11-21T00:44:59.803Z,37.65
2022-11-21T00:45:46.723Z,36.97
2022-11-21T00:46:20.810Z,37.06
2022-11-21T00:47:07.747Z,37.78
2022-11-21T00:47:41.809Z,38.74
2022-11-21T00:48:28.724Z,37.66
2022-11-21T00:49:02.805Z,37.59
2022-11-21T00:49:49.781Z,37.54
2022-11-21T00:50:23.779Z,39.85
2022-11-21T00:51:10.736Z,38.31
2022-11-21T00:51:44.825Z,38.21
2022-11-21T00:52:32.702Z,38.25
2022-11-21T00:53:12.908Z,39.38
2022-11-21T00:53:52.703Z,40.09
2022-11-21T00:54:32.754Z,40.79
2022-11-21T00:55:12.756Z,41.01
2022-11-21T00:55:52.806Z,41.53
2022-11-21T00:56:32.741Z,41.91
2022-11-21T00:57:13.765Z,41.75
2022-11-21T00:57:53.736Z,41.35
2022-11-21T00:58:34.825Z,41.64
2022-11-21T00:59:14.708Z,41.09
2022-11-21T00:59:54.823Z,41.31
2022-11-21T01:00:34.809Z,42.65
2022-11-21T01:01:20.800Z,40.71
2022-11-21T01:02:01.696Z,41.04
2022-11-21T01:02:41.763Z,41.14
2022-11-21T01:03:21.731Z,40.04
2022-11-21T01:04:01.787Z,40.94
2022-11-21T01:04:42.706Z,40.45
2022-11-21T01:05:22.790Z,39.75
2022-11-21T01:06:13.716Z,40.71
2022-11-21T01:06:54.742Z,40.25
2022-11-21T01:07:34.744Z,38.99
2022-11-21T01:08:14.744Z,38.75
2022-11-21T01:08:54.707Z,38.22
2022-11-21T01:09:35.772Z,37.86
2022-11-21T01:10:15.697Z,39.31
2022-11-21T01:10:55.834Z,38.05
2022-11-21T01:11:36.749Z,37.44
2022-11-21T01:12:16.802Z,37.83
2022-11-21T01:12:56.758Z,37.20
2022-11-21T01:13:36.753Z,37.25
2022-11-21T01:14:16.703Z,38.80
2022-11-21T01:14:56.772Z,39.79
2022-11-21T01:15:36.715Z,39.42
2022-11-21T01:16:23.954Z,40.13
2022-11-21T01:17:03.735Z,42.20
2022-11-21T01:17:43.727Z,45.86
2022-11-21T01:18:23.679Z,48.42
2022-11-21T01:19:05.062Z,47.49
2022-11-21T01:19:45.704Z,47.29
2022-11-21T01:20:26.790Z,47.29
2022-11-21T01:21:13.655Z,47.20
2022-11-21T01:21:53.752Z,47.11
2022-11-21T01:22:33.719Z,43.54
2022-11-21T01:23:13.791Z,44.72
2022-11-21T01:23:54.680Z,44.45
2022-11-21T01:24:34.731Z,46.76
2022-11-21T01:25:15.672Z,44.86
2022-11-21T01:25:55.695Z,43.83
2022-11-21T01:26:38.705Z,42.05
2022-11-21T01:27:18.741Z,43.09
2022-11-21T01:27:58.739Z,42.11
2022-11-21T01:28:39.763Z,42.50
2022-11-21T01:29:19.687Z,42.49
2022-11-21T01:30:00.764Z,44.64
2022-11-21T01:30:40.696Z,44.97
2022-11-21T01:31:24.764Z,44.89
2022-11-21T01:32:04.669Z,45.58
2022-11-21T01:32:44.752Z,46.03
2022-11-21T01:33:24.707Z,46.38
2022-11-21T01:34:06.702Z,47.60
2022-11-21T01:34:46.684Z,49.67
2022-11-21T01:35:26.791Z,52.25
2022-11-21T01:36:20.678Z,54.46
2022-11-21T01:37:01.285Z,56.90
2022-11-21T01:37:41.674Z,59.05
2022-11-21T01:38:21.732Z,62.75
2022-11-21T01:39:04.709Z,65.68
2022-11-21T01:39:45.743Z,67.76
2022-11-21T01:40:25.712Z,64.86
2022-11-21T01:41:05.719Z,64.49
2022-11-21T01:41:48.704Z,64.63
2022-11-21T01:42:28.772Z,65.06
2022-11-21T01:43:17.703Z,58.55
2022-11-21T01:43:58.230Z,55.21
2022-11-21T01:44:59.685Z,52.99
2022-11-21T01:46:01.756Z,51.67
2022-11-21T01:46:41.653Z,51.76
2022-11-21T01:47:22.697Z,51.34
2022-11-21T01:48:02.655Z,47.28
2022-11-21T01:49:12.967Z,48.42
2022-11-21T01:49:53.655Z,50.84
2022-11-21T01:50:33.667Z,50.79
2022-11-21T01:51:14.777Z,48.16
2022-11-21T01:52:07.003Z,49.81
2022-11-21T01:52:46.633Z,48.80
2022-11-21T01:53:20.713Z,46.51
2022-11-21T01:54:03.398Z,47.06
2022-11-21T01:54:47.680Z,48.64
2022-11-21T01:55:21.704Z,47.24
2022-11-21T01:56:01.673Z,47.45
2022-11-21T01:57:16.816Z,47.59
2022-11-21T01:57:56.646Z,44.92
2022-11-21T01:58:38.756Z,45.39
2022-11-21T01:59:26.655Z,47.10
2022-11-21T02:00:21.523Z,46.47
2022-11-21T02:01:01.691Z,45.92
2022-11-21T02:01:41.695Z,44.69
2022-11-21T02:02:25.651Z,43.95
2022-11-21T02:03:09.666Z,44.08
2022-11-21T02:03:50.697Z,46.11
2022-11-21T02:04:34.701Z,45.76
2022-11-21T02:05:19.649Z,46.22
2022-11-21T02:06:08.651Z,47.22
2022-11-21T02:06:42.327Z,45.44
2022-11-21T02:07:31.685Z,46.09
2022-11-21T02:08:18.582Z,45.95
2022-11-21T02:09:06.716Z,46.36
2022-11-21T02:09:42.957Z,44.59
2022-11-21T02:10:30.627Z,45.34
2022-11-21T02:11:41.680Z,47.10
2022-11-21T02:12:29.671Z,45.96
2022-11-21T02:13:09.674Z,45.22
2022-11-21T02:13:50.632Z,46.94
2022-11-21T02:14:30.633Z,46.24
2022-11-21T02:15:11.694Z,47.38
2022-11-21T02:15:51.615Z,45.97
2022-11-21T02:16:32.787Z,43.89
2022-11-21T02:17:13.635Z,44.11
2022-11-21T02:17:53.781Z,44.86
2022-11-21T02:18:34.593Z,45.04
2022-11-21T02:19:26.704Z,45.50
2022-11-21T02:20:11.604Z,47.40
2022-11-21T02:20:55.708Z,46.19
2022-11-21T02:21:57.643Z,46.56
2022-11-21T02:23:19.624Z,46.56
2022-11-21T02:24:04.682Z,47.94
2022-11-21T02:24:52.793Z,48.70
2022-11-21T02:25:35.587Z,51.80
2022-11-21T02:26:09.667Z,54.78
2022-11-21T02:26:43.470Z,55.74
2022-11-21T02:27:24.615Z,56.21
2022-11-21T02:28:13.705Z,58.90
2022-11-21T02:28:54.803Z,62.10
2022-11-21T02:29:35.677Z,63.95
2022-11-21T02:30:17.606Z,64.55
2022-11-21T02:30:57.720Z,64.46
2022-11-21T02:31:37.599Z,66.31
2022-11-21T02:32:31.820Z,65.80
2022-11-21T02:33:12.603Z,63.04
2022-11-21T02:33:53.733Z,63.96
2022-11-21T02:34:33.618Z,64.89
2022-11-21T02:35:15.676Z,63.08
2022-11-21T02:36:42.647Z,64.68
2022-11-21T02:37:24.667Z,65.00
2022-11-21T02:38:13.583Z,64.80
2022-11-21T02:38:54.612Z,61.95
2022-11-21T02:39:42.618Z,59.15
2022-11-21T02:40:28.675Z,58.86
2022-11-21T02:41:32.611Z,58.08
2022-11-21T02:42:32.628Z,56.54
2022-11-21T02:43:29.628Z,55.39
2022-11-21T02:44:19.632Z,54.29
2022-11-21T02:45:36.683Z,52.22
2022-11-21T02:46:16.635Z,51.41
2022-11-21T02:46:58.593Z,51.21
2022-11-21T02:47:39.710Z,49.49
2022-11-21T02:48:20.574Z,49.33
2022-11-21T02:49:02.632Z,46.71
2022-11-21T02:50:31.595Z,46.59
2022-11-21T02:51:11.595Z,46.59
2022-11-21T02:51:45.911Z,45.92
2022-11-21T02:52:19.227Z,44.33
2022-11-21T02:52:59.563Z,44.59
2022-11-21T02:53:33.775Z,44.47
2022-11-21T02:54:07.316Z,44.91
2022-11-21T02:54:47.581Z,43.60
2022-11-21T02:55:21.621Z,42.83
2022-11-21T02:55:55.347Z,42.19
2022-11-21T02:56:35.611Z,42.46
2022-11-21T02:57:09.620Z,41.96
2022-11-21T02:57:43.408Z,42.90
2022-11-21T02:58:24.564Z,43.80
2022-11-21T02:58:58.699Z,42.71
2022-11-21T02:59:32.252Z,42.69
2022-11-21T03:00:14.620Z,43.05
2022-11-21T03:00:49.919Z,43.75
2022-11-21T03:01:24.946Z,41.66
2022-11-21T03:02:06.617Z,40.54
2022-11-21T03:02:40.631Z,41.71
2022-11-21T03:03:14.556Z,42.17
2022-11-21T03:03:54.568Z,42.49
2022-11-21T03:04:29.227Z,41.96
2022-11-21T03:05:05.682Z,41.51
2022-11-21T03:05:46.573Z,41.74
2022-11-21T03:06:20.643Z,40.34
2022-11-21T03:06:54.432Z,40.81
2022-11-21T03:07:35.653Z,41.63
2022-11-21T03:08:10.662Z,41.17
2022-11-21T03:08:44.295Z,41.51
2022-11-21T03:09:24.575Z,41.20
2022-11-21T03:09:58.658Z,41.92
2022-11-21T03:10:32.732Z,40.77
2022-11-21T03:11:12.574Z,40.81
2022-11-21T03:11:46.579Z,42.42
2022-11-21T03:12:20.322Z,41.65
2022-11-21T03:13:07.587Z,41.20
2022-11-21T03:13:41.616Z,42.33
2022-11-21T03:14:15.308Z,42.10
2022-11-21T03:14:55.645Z,42.49
2022-11-21T03:15:29.865Z,41.85
2022-11-21T03:16:03.330Z,42.94
2022-11-21T03:16:44.535Z,42.65
2022-11-21T03:17:18.626Z,42.08
2022-11-21T03:17:52.285Z,41.83
2022-11-21T03:18:32.585Z,42.21
2022-11-21T03:19:06.626Z,41.09
2022-11-21T03:19:40.251Z,41.17
2022-11-21T03:20:20.552Z,41.75
2022-11-21T03:20:54.589Z,42.05
2022-11-21T03:21:28.288Z,42.95
2022-11-21T03:22:09.582Z,42.47
2022-11-21T03:22:43.621Z,43.50
2022-11-21T03:23:17.224Z,42.14
2022-11-21T03:23:57.580Z,42.35
2022-11-21T03:24:31.575Z,43.88
2022-11-21T03:25:05.763Z,43.33
2022-11-21T03:25:45.555Z,43.60
2022-11-21T03:26:19.711Z,44.95
2022-11-21T03:26:53.265Z,44.24
2022-11-21T03:27:34.540Z,43.76
2022-11-21T03:28:08.618Z,43.66
2022-11-21T03:28:42.961Z,44.00
2022-11-21T03:29:22.581Z,44.63
2022-11-21T03:29:56.632Z,44.49
2022-11-21T03:30:30.545Z,43.58
2022-11-21T03:31:11.552Z,44.10
2022-11-21T03:31:45.614Z,41.70
2022-11-21T03:32:19.257Z,42.83
2022-11-21T03:33:03.547Z,43.80
2022-11-21T03:33:37.626Z,42.11
2022-11-21T03:34:11.328Z,42.34
2022-11-21T03:34:52.564Z,43.19
2022-11-21T03:35:26.604Z,43.61
2022-11-21T03:36:01.234Z,44.42
2022-11-21T03:36:41.552Z,44.83
2022-11-21T03:37:15.883Z,45.03
2022-11-21T03:37:49.559Z,44.21
2022-11-21T03:38:29.517Z,44.03
2022-11-21T03:39:03.613Z,45.20
2022-11-21T03:39:37.267Z,44.96
2022-11-21T03:40:18.591Z,45.06
2022-11-21T03:40:52.568Z,46.61
2022-11-21T03:41:29.699Z,46.89
2022-11-21T03:42:10.562Z,47.39
2022-11-21T03:42:44.582Z,48.33
2022-11-21T03:43:18.258Z,49.41
2022-11-21T03:43:58.549Z,49.75
2022-11-21T03:44:32.539Z,47.45
2022-11-21T03:45:07.000Z,47.63
2022-11-21T03:45:47.555Z,47.85
2022-11-21T03:46:21.582Z,47.97
2022-11-21T03:46:55.208Z,47.24
2022-11-21T03:47:36.521Z,48.06
2022-11-21T03:48:10.698Z,46.75
2022-11-21T03:48:44.201Z,45.89
2022-11-21T03:49:24.531Z,45.95
2022-11-21T03:49:58.630Z,48.78
2022-11-21T03:50:33.187Z,47.47
2022-11-21T03:51:13.523Z,46.31
2022-11-21T03:51:47.583Z,45.56
2022-11-21T03:52:21.698Z,48.25
2022-11-21T03:53:01.514Z,47.58
2022-11-21T03:53:35.556Z,44.71
2022-11-21T03:54:09.362Z,43.38
2022-11-21T03:54:49.507Z,42.38
2022-11-21T03:55:23.563Z,42.08
2022-11-21T03:55:57.166Z,41.95
2022-11-21T03:56:38.536Z,41.44
2022-11-21T03:57:12.588Z,43.00
2022-11-21T03:57:46.386Z,40.97
2022-11-21T03:58:26.545Z,38.89
2022-11-21T03:59:00.584Z,40.50
2022-11-21T03:59:34.235Z,39.85
2022-11-21T04:00:16.528Z,39.65
2022-11-21T04:00:50.555Z,39.92
2022-11-21T04:01:24.909Z,39.01
2022-11-21T04:02:04.548Z,39.66
2022-11-21T04:02:38.560Z,39.10
2022-11-21T04:03:12.230Z,38.80
2022-11-21T04:03:53.527Z,38.16
2022-11-21T04:04:27.836Z,37.85
2022-11-21T04:05:02.164Z,36.42
2022-11-21T04:05:42.508Z,36.70
2022-11-21T04:06:18.630Z,37.96
2022-11-21T04:06:52.183Z,37.13
2022-11-21T04:07:32.545Z,36.41
2022-11-21T04:08:06.612Z,37.31
2022-11-21T04:08:40.458Z,39.83
2022-11-21T04:09:21.508Z,39.70
2022-11-21T04:09:55.581Z,37.61
2022-11-21T04:10:29.212Z,37.89
2022-11-21T04:11:10.512Z,38.45
2022-11-21T04:11:44.609Z,38.58
2022-11-21T04:12:18.185Z,38.58
2022-11-21T04:12:58.526Z,37.33
2022-11-21T04:13:32.584Z,39.15
2022-11-21T04:14:07.168Z,38.79
2022-11-21T04:14:47.479Z,38.51
2022-11-21T04:15:21.569Z,37.41
2022-11-21T04:15:55.271Z,38.89
2022-11-21T04:16:35.480Z,39.06
2022-11-21T04:17:09.541Z,39.45
2022-11-21T04:17:43.291Z,39.90
2022-11-21T04:18:24.553Z,39.61
2022-11-21T04:18:58.589Z,40.83
2022-11-21T04:19:32.171Z,41.10
2022-11-21T04:20:13.504Z,39.89
2022-11-21T04:20:47.559Z,41.61
2022-11-21T04:21:21.246Z,43.72
2022-11-21T04:22:01.486Z,42.40
2022-11-21T04:22:35.531Z,42.14
2022-11-21T04:23:22.490Z,44.17
2022-11-21T04:24:03.464Z,42.61
2022-11-21T04:24:57.506Z,42.58
2022-11-21T04:25:51.595Z,42.88
2022-11-21T04:26:45.486Z,41.85
2022-11-21T04:27:39.479Z,42.28
2022-11-21T04:28:33.513Z,41.14
2022-11-21T04:29:27.466Z,40.42
2022-11-21T04:30:22.464Z,39.90
2022-11-21T04:31:20.497Z,41.05
2022-11-21T04:32:14.513Z,41.36
2022-11-21T04:33:09.525Z,40.56
2022-11-21T04:33:56.541Z,40.79
2022-11-21T04:34:36.573Z,40.63
2022-11-21T04:35:16.473Z,39.53
2022-11-21T04:35:56.541Z,38.83
2022-11-21T04:36:36.529Z,40.15
2022-11-21T04:37:16.720Z,40.64
2022-11-21T04:37:58.512Z,39.28
2022-11-21T04:38:38.579Z,38.56
2022-11-21T04:39:18.508Z,39.36
2022-11-21T04:39:58.540Z,40.29
2022-11-21T04:40:38.477Z,41.66
2022-11-21T04:41:18.516Z,42.09
2022-11-21T04:41:58.453Z,40.84
2022-11-21T04:42:39.532Z,40.21
2022-11-21T04:43:19.438Z,40.99
2022-11-21T04:43:59.619Z,41.14
2022-11-21T04:44:39.511Z,42.31
2022-11-21T04:45:21.536Z,43.38
2022-11-21T04:46:01.454Z,43.31
2022-11-21T04:46:41.508Z,44.59
2022-11-21T04:47:21.517Z,45.96
2022-11-21T04:48:01.504Z,44.71
2022-11-21T04:48:41.497Z,45.30
2022-11-21T04:49:21.498Z,45.36
2022-11-21T04:50:01.456Z,44.55
2022-11-21T04:50:41.552Z,44.21
2022-11-21T04:51:21.463Z,42.94
2022-11-21T04:52:02.498Z,42.47
2022-11-21T04:52:42.471Z,42.72
2022-11-21T04:53:22.564Z,41.91
2022-11-21T04:54:02.442Z,41.60
2022-11-21T04:54:42.491Z,41.95
2022-11-21T04:55:22.447Z,41.26
2022-11-21T04:56:02.483Z,40.50
2022-11-21T04:56:43.475Z,41.13
2022-11-21T04:57:23.505Z,42.41
2022-11-21T04:58:03.484Z,41.99
2022-11-21T04:58:44.678Z,40.10
2022-11-21T04:59:24.440Z,39.35
2022-11-21T05:00:04.535Z,38.91
2022-11-21T05:00:44.495Z,39.29
2022-11-21T05:01:25.570Z,39.04
2022-11-21T05:02:05.410Z,37.26
2022-11-21T05:02:45.620Z,37.56
2022-11-21T05:03:25.451Z,37.45
2022-11-21T05:04:05.551Z,38.29
2022-11-21T05:04:46.442Z,38.26
2022-11-21T05:05:26.463Z,37.99
2022-11-21T05:06:06.505Z,39.53
2022-11-21T05:06:46.473Z,40.30
2022-11-21T05:07:26.558Z,40.13
2022-11-21T05:08:06.493Z,37.97
2022-11-21T05:08:51.642Z,37.96
2022-11-21T05:09:32.445Z,40.31
2022-11-21T05:10:13.442Z,41.00
2022-11-21T05:11:20.449Z,41.96
2022-11-21T05:12:13.021Z,41.94
2022-11-21T05:13:18.444Z,42.76
2022-11-21T05:13:54.505Z,43.83
2022-11-21T05:14:41.488Z,45.15
2022-11-21T05:15:15.114Z,47.28
2022-11-21T05:16:03.420Z,45.81
2022-11-21T05:16:43.478Z,44.72
2022-11-21T05:17:23.442Z,45.04
2022-11-21T05:18:06.495Z,45.56
2022-11-21T05:18:46.513Z,45.69
2022-11-21T05:19:26.484Z,46.69
2022-11-21T05:20:07.472Z,48.19
2022-11-21T05:20:48.408Z,49.16
2022-11-21T05:21:28.499Z,50.36
2022-11-21T05:22:08.489Z,53.84
2022-11-21T05:22:49.877Z,53.55
2022-11-21T05:23:31.436Z,53.24
2022-11-21T05:24:12.497Z,54.55
2022-11-21T05:24:52.444Z,60.85
2022-11-21T05:25:33.479Z,65.35
2022-11-21T05:26:20.468Z,59.89
2022-11-21T05:26:54.439Z,66.09
2022-11-21T05:27:35.443Z,74.74
2022-11-21T05:28:15.564Z,80.55
2022-11-21T05:28:55.393Z,81.63
2022-11-21T05:29:35.983Z,82.07
2022-11-21T05:30:18.513Z,77.14
2022-11-21T05:30:58.427Z,76.00
2022-11-21T05:31:38.442Z,71.59
2022-11-21T05:32:18.494Z,68.90
2022-11-21T05:32:58.418Z,68.88
2022-11-21T05:33:38.488Z,67.90
2022-11-21T05:34:18.381Z,68.74
2022-11-21T05:34:58.473Z,70.86
2022-11-21T05:35:42.967Z,70.88
2022-11-21T05:36:23.462Z,69.28
2022-11-21T05:37:06.420Z,69.05
2022-11-21T05:37:46.521Z,65.85
2022-11-21T05:38:26.430Z,67.46
2022-11-21T05:39:06.465Z,67.51
2022-11-21T05:39:47.387Z,64.93
2022-11-21T05:40:27.579Z,60.97
2022-11-21T05:41:07.385Z,60.09
2022-11-21T05:41:47.437Z,58.04
2022-11-21T05:42:47.429Z,56.79
2022-11-21T05:43:52.452Z,55.01
2022-11-21T05:44:46.419Z,51.55
2022-11-21T05:45:40.376Z,48.36
2022-11-21T05:46:38.375Z,48.34
2022-11-21T05:47:32.351Z,48.38
2022-11-21T05:48:26.573Z,46.96
2022-11-21T05:49:14.454Z,48.06
2022-11-21T05:49:48.425Z,49.21
2022-11-21T05:50:35.392Z,50.06
2022-11-21T05:51:11.536Z,53.13
2022-11-21T05:51:58.370Z,54.86
2022-11-21T05:52:32.426Z,58.95
2022-11-21T05:53:19.403Z,66.16
2022-11-21T05:53:54.462Z,67.61
2022-11-21T05:54:34.379Z,67.07
2022-11-21T05:55:15.428Z,69.28
2022-11-21T05:55:55.419Z,71.66
2022-11-21T05:56:35.415Z,69.66
2022-11-21T05:57:15.405Z,70.64
2022-11-21T05:57:55.497Z,72.35
2022-11-21T05:58:36.363Z,73.44
2022-11-21T05:59:17.470Z,75.68
2022-11-21T05:59:57.399Z,72.47
2022-11-21T06:00:37.746Z,67.86
2022-11-21T06:01:21.374Z,66.22
2022-11-21T06:02:20.152Z,62.29
2022-11-21T06:03:19.485Z,58.36
2022-11-21T06:04:00.464Z,56.50
2022-11-21T06:04:41.383Z,57.49
2022-11-21T06:05:21.393Z,55.76
2022-11-21T06:05:55.397Z,56.09
2022-11-21T06:06:44.374Z,53.31
2022-11-21T06:07:18.459Z,52.80
2022-11-21T06:08:05.368Z,53.22
2022-11-21T06:08:48.387Z,52.16
2022-11-21T06:09:28.363Z,52.86
2022-11-21T06:10:08.399Z,53.61
2022-11-21T06:10:48.391Z,51.66
2022-11-21T06:11:28.420Z,51.51
2022-11-21T06:12:08.363Z,51.76
2022-11-21T06:12:48.370Z,51.50
2022-11-21T06:13:28.349Z,50.95
2022-11-21T06:14:08.418Z,51.26
2022-11-21T06:14:48.354Z,50.05
2022-11-21T06:15:28.390Z,50.54
2022-11-21T06:16:12.379Z,52.09
2022-11-21T06:16:52.404Z,51.33
2022-11-21T06:17:33.363Z,49.56
2022-11-21T06:18:14.359Z,52.01
2022-11-21T06:18:59.339Z,52.08
2022-11-21T06:19:39.376Z,51.21
2022-11-21T06:20:19.354Z,50.49
2022-11-21T06:21:00.525Z,50.54
2022-11-21T06:21:43.423Z,52.88
2022-11-21T06:22:23.385Z,50.95
2022-11-21T06:23:03.349Z,51.63
2022-11-21T06:23:43.419Z,50.50
2022-11-21T06:24:23.356Z,49.67
2022-11-21T06:25:03.433Z,49.16
2022-11-21T06:25:43.323Z,49.49
2022-11-21T06:26:29.454Z,51.13
2022-11-21T06:27:09.359Z,52.76
2022-11-21T06:27:50.390Z,51.67
2022-11-21T06:28:31.378Z,50.76
2022-11-21T06:29:11.428Z,51.36
2022-11-21T06:29:51.371Z,52.41
2022-11-21T06:30:31.410Z,50.74
2022-11-21T06:31:19.308Z,51.04
2022-11-21T06:31:59.369Z,51.49
2022-11-21T06:32:44.462Z,53.41
2022-11-21T06:33:25.367Z,54.46
2022-11-21T06:34:06.307Z,55.83
2022-11-21T06:34:46.437Z,60.56
2022-11-21T06:35:26.331Z,60.40
2022-11-21T06:36:20.380Z,59.96
2022-11-21T06:37:00.346Z,60.00
2022-11-21T06:37:40.463Z,60.42
2022-11-21T06:38:20.350Z,58.16
2022-11-21T06:39:02.392Z,59.14
2022-11-21T06:39:42.322Z,57.30
2022-11-21T06:40:23.392Z,58.63
2022-11-21T06:41:03.344Z,62.04
2022-11-21T06:41:50.910Z,64.10
2022-11-21T06:42:31.306Z,62.51
2022-11-21T06:43:11.368Z,60.92
2022-11-21T06:43:52.353Z,53.85
2022-11-21T06:44:32.372Z,50.74
2022-11-21T06:45:13.303Z,50.51
2022-11-21T06:45:54.360Z,50.83
2022-11-21T06:46:34.315Z,48.64
2022-11-21T06:47:14.364Z,50.99
2022-11-21T06:47:55.344Z,50.16
2022-11-21T06:48:36.466Z,51.00
2022-11-21T06:49:16.393Z,50.43
2022-11-21T06:49:56.407Z,48.67
2022-11-21T06:50:37.323Z,48.88
2022-11-21T06:51:29.369Z,50.54
2022-11-21T06:52:09.310Z,51.35
2022-11-21T06:52:49.344Z,46.19
2022-11-21T06:53:29.314Z,47.10
2022-11-21T06:54:12.610Z,47.03
2022-11-21T06:54:56.336Z,47.81
2022-11-21T06:55:38.488Z,47.10
2022-11-21T06:56:18.298Z,46.21
2022-11-21T06:56:59.365Z,44.86
2022-11-21T06:57:39.300Z,45.16
2022-11-21T06:58:19.587Z,45.51
2022-11-21T06:58:59.291Z,43.29
2022-11-21T06:59:39.315Z,42.44
2022-11-21T07:00:20.340Z,42.99
2022-11-21T07:01:00.381Z,42.38
2022-11-21T07:01:40.340Z,44.78
2022-11-21T07:02:23.338Z,44.58
2022-11-21T07:03:10.332Z,44.16
2022-11-21T07:03:50.397Z,45.06
2022-11-21T07:04:30.445Z,44.36
2022-11-21T07:05:10.322Z,43.35
2022-11-21T07:05:50.296Z,42.36
2022-11-21T07:06:31.429Z,42.58
2022-11-21T07:07:11.337Z,42.65
2022-11-21T07:07:51.312Z,43.17
2022-11-21T07:08:31.306Z,43.67
2022-11-21T07:09:41.216Z,43.31
2022-11-21T07:10:13.292Z,42.29
2022-11-21T07:11:23.673Z,42.53
2022-11-21T07:11:54.033Z,42.40
2022-11-21T07:12:59.289Z,41.40
2022-11-21T07:13:33.386Z,42.35
2022-11-21T07:14:21.306Z,44.64
2022-11-21T07:14:55.033Z,43.58
2022-11-21T07:15:42.295Z,41.36
2022-11-21T07:16:22.318Z,42.35
2022-11-21T07:17:02.369Z,41.95
2022-11-21T07:17:42.288Z,40.57
2022-11-21T07:18:22.658Z,40.59
2022-11-21T07:19:03.295Z,41.84
2022-11-21T07:19:43.365Z,42.28
2022-11-21T07:20:23.290Z,40.96
2022-11-21T07:21:13.351Z,43.21
2022-11-21T07:21:53.320Z,43.46
2022-11-21T07:22:33.389Z,38.28
2022-11-21T07:23:14.256Z,39.49
2022-11-21T07:23:55.356Z,42.15
2022-11-21T07:24:35.267Z,40.58
2022-11-21T07:25:16.327Z,40.64
2022-11-21T07:25:56.292Z,40.75
2022-11-21T07:26:36.353Z,41.07
2022-11-21T07:27:16.323Z,40.81
2022-11-21T07:27:56.324Z,42.10
2022-11-21T07:28:37.267Z,42.99
2022-11-21T07:29:17.297Z,45.60
2022-11-21T07:29:58.276Z,46.39
2022-11-21T07:30:39.364Z,44.44
2022-11-21T07:31:19.282Z,44.83
2022-11-21T07:31:59.325Z,45.89
2022-11-21T07:32:39.280Z,44.92
2022-11-21T07:33:20.336Z,45.55
2022-11-21T07:34:00.290Z,45.44
2022-11-21T07:34:40.363Z,44.56
2022-11-21T07:35:20.246Z,46.64
2022-11-21T07:36:03.285Z,45.09
2022-11-21T07:36:43.264Z,42.55
2022-11-21T07:37:24.320Z,46.56
2022-11-21T07:38:04.256Z,45.17
2022-11-21T07:38:44.311Z,42.39
2022-11-21T07:39:24.245Z,44.39
2022-11-21T07:40:04.284Z,41.84
2022-11-21T07:40:44.259Z,41.14
2022-11-21T07:41:24.293Z,40.71
2022-11-21T07:42:04.227Z,41.26
2022-11-21T07:42:44.295Z,41.28
2022-11-21T07:43:25.259Z,41.86
2022-11-21T07:44:05.276Z,40.58
2022-11-21T07:44:46.256Z,40.83
2022-11-21T07:45:27.280Z,41.63
2022-11-21T07:46:07.269Z,40.75
2022-11-21T07:46:48.337Z,41.46
2022-11-21T07:47:28.253Z,42.97
2022-11-21T07:48:11.916Z,41.60
2022-11-21T07:48:52.252Z,42.06
2022-11-21T07:49:32.296Z,43.51
2022-11-21T07:50:20.267Z,42.54
2022-11-21T07:50:54.276Z,42.19
2022-11-21T07:51:41.234Z,43.41
2022-11-21T07:52:15.291Z,41.99
2022-11-21T07:53:10.252Z,42.05
2022-11-21T07:53:44.331Z,43.01
2022-11-21T07:54:24.285Z,42.76
2022-11-21T07:55:04.745Z,42.76
2022-11-21T07:55:45.251Z,43.16
2022-11-21T07:56:26.678Z,43.81
2022-11-21T07:57:06.243Z,45.03
2022-11-21T07:57:46.326Z,44.65
2022-11-21T07:58:26.219Z,44.38
2022-11-21T07:59:06.279Z,45.40
2022-11-21T07:59:46.256Z,44.31
2022-11-21T08:00:26.334Z,44.59
2022-11-21T08:01:13.247Z,44.59
2022-11-21T08:01:53.368Z,43.39
2022-11-21T08:02:35.225Z,44.09
2022-11-21T08:03:15.288Z,44.60
2022-11-21T08:03:55.228Z,44.99
2022-11-21T08:04:35.312Z,45.64
2022-11-21T08:05:16.232Z,45.29
2022-11-21T08:05:56.305Z,45.41
2022-11-21T08:06:36.247Z,45.59
2022-11-21T08:07:17.389Z,45.74
2022-11-21T08:07:58.244Z,47.60
2022-11-21T08:08:38.289Z,49.26
2022-11-21T08:09:18.251Z,50.14
2022-11-21T08:09:58.381Z,51.46
2022-11-21T08:10:39.255Z,52.64
2022-11-21T08:11:19.261Z,54.11
2022-11-21T08:11:59.219Z,54.96
2022-11-21T08:12:40.523Z,56.26
2022-11-21T08:13:21.228Z,55.76
2022-11-21T08:14:01.446Z,55.34
2022-11-21T08:14:42.242Z,55.40
2022-11-21T08:15:22.257Z,56.25
2022-11-21T08:16:02.219Z,56.09
2022-11-21T08:16:42.239Z,54.97
2022-11-21T08:17:25.206Z,57.58
2022-11-21T08:18:05.232Z,58.22
2022-11-21T08:18:45.261Z,54.44
2022-11-21T08:19:25.662Z,53.20
2022-11-21T08:20:07.226Z,53.47
2022-11-21T08:20:48.329Z,53.89
2022-11-21T08:21:28.234Z,53.40
2022-11-21T08:22:08.256Z,52.28
2022-11-21T08:22:49.241Z,53.22
2022-11-21T08:23:29.256Z,54.42
2022-11-21T08:24:10.194Z,54.03
2022-11-21T08:24:50.230Z,53.74
2022-11-21T08:25:30.240Z,52.56
2022-11-21T08:26:10.607Z,54.61
2022-11-21T08:26:54.229Z,55.51
2022-11-21T08:27:35.236Z,56.70
2022-11-21T08:28:18.197Z,57.51
2022-11-21T08:29:00.012Z,58.74
2022-11-21T08:29:41.176Z,53.55
2022-11-21T08:30:21.221Z,49.60
2022-11-21T08:31:01.186Z,50.42
2022-11-21T08:31:41.259Z,49.11
2022-11-21T08:32:22.220Z,49.05
2022-11-21T08:33:05.257Z,49.28
2022-11-21T08:33:45.185Z,50.16
2022-11-21T08:34:25.251Z,49.13
2022-11-21T08:35:05.211Z,50.09
2022-11-21T08:35:46.342Z,52.17
2022-11-21T08:36:26.186Z,52.51
2022-11-21T08:37:06.229Z,51.41
2022-11-21T08:37:46.219Z,51.17
2022-11-21T08:38:26.274Z,51.78
2022-11-21T08:39:07.198Z,53.86
2022-11-21T08:39:47.231Z,54.38
2022-11-21T08:40:27.202Z,55.47
2022-11-21T08:41:39.511Z,54.00
2022-11-21T08:42:20.196Z,54.59
2022-11-21T08:43:14.227Z,56.05
2022-11-21T08:43:48.194Z,57.06
2022-11-21T08:44:36.186Z,54.79
2022-11-21T08:45:12.247Z,54.13
2022-11-21T08:45:59.187Z,49.09
2022-11-21T08:46:33.693Z,50.31
2022-11-21T08:47:20.209Z,50.38
2022-11-21T08:47:54.260Z,49.92
2022-11-21T08:48:35.188Z,48.38
2022-11-21T08:49:15.393Z,47.20
2022-11-21T08:49:55.172Z,47.19
2022-11-21T08:50:35.305Z,47.33
2022-11-21T08:51:15.200Z,43.89